sensor_id;sensor_type;location;lat;lon;timestamp;P1;durP1;ratioP1;P2;durP2;ratioP2
23952;SDS011;12163;49.316;6.092;2023-07-31T00:01:13;11.40;;;3.53;;
23952;SDS011;12163;49.316;6.092;2023-07-31T00:03:40;8.75;;;2.92;;
23952;SDS011;12163;49.316;6.092;2023-07-31T00:06:06;5.38;;;2.63;;
23952;SDS011;12163;49.316;6.092;2023-07-31T00:08:33;9.10;;;2.80;;
23952;SDS011;12163;49.316;6.092;2023-07-31T00:11:00;8.50;;;2.95;;
23952;SDS011;12163;49.316;6.092;2023-07-31T00:13:26;9.52;;;3.25;;
23952;SDS011;12163;49.316;6.092;2023-07-31T00:15:53;6.80;;;2.55;;
23952;SDS011;12163;49.316;6.092;2023-07-31T00:18:19;8.18;;;2.92;;
23952;SDS011;12163;49.316;6.092;2023-07-31T00:20:46;8.63;;;3.25;;
23952;SDS011;12163;49.316;6.092;2023-07-31T00:23:13;8.98;;;2.67;;
23952;SDS011;12163;49.316;6.092;2023-07-31T00:25:40;8.93;;;3.03;;
23952;SDS011;12163;49.316;6.092;2023-07-31T00:28:06;7.97;;;2.95;;
23952;SDS011;12163;49.316;6.092;2023-07-31T00:30:33;9.07;;;3.10;;
23952;SDS011;12163;49.316;6.092;2023-07-31T00:33:00;6.32;;;2.80;;
23952;SDS011;12163;49.316;6.092;2023-07-31T00:35:26;10.05;;;2.95;;
23952;SDS011;12163;49.316;6.092;2023-07-31T00:37:53;7.80;;;2.80;;
23952;SDS011;12163;49.316;6.092;2023-07-31T00:40:20;11.55;;;2.83;;
23952;SDS011;12163;49.316;6.092;2023-07-31T00:42:46;11.60;;;3.25;;
23952;SDS011;12163;49.316;6.092;2023-07-31T00:45:13;10.63;;;3.20;;
23952;SDS011;12163;49.316;6.092;2023-07-31T00:47:39;6.43;;;2.83;;
23952;SDS011;12163;49.316;6.092;2023-07-31T00:50:07;8.38;;;3.42;;
23952;SDS011;12163;49.316;6.092;2023-07-31T00:52:34;12.13;;;3.28;;
23952;SDS011;12163;49.316;6.092;2023-07-31T00:55:02;10.35;;;2.80;;
23952;SDS011;12163;49.316;6.092;2023-07-31T00:57:29;9.63;;;2.95;;
23952;SDS011;12163;49.316;6.092;2023-07-31T00:59:57;8.70;;;3.20;;
23952;SDS011;12163;49.316;6.092;2023-07-31T01:02:23;11.27;;;3.00;;
23952;SDS011;12163;49.316;6.092;2023-07-31T01:04:50;13.13;;;3.72;;
23952;SDS011;12163;49.316;6.092;2023-07-31T01:07:31;7.07;;;2.75;;
23952;SDS011;12163;49.316;6.092;2023-07-31T01:10:15;9.07;;;2.88;;
23952;SDS011;12163;49.316;6.092;2023-07-31T01:12:47;8.95;;;2.78;;
23952;SDS011;12163;49.316;6.092;2023-07-31T01:15:14;11.07;;;2.83;;
23952;SDS011;12163;49.316;6.092;2023-07-31T01:17:41;9.23;;;2.88;;
23952;SDS011;12163;49.316;6.092;2023-07-31T01:20:10;10.23;;;3.10;;
23952;SDS011;12163;49.316;6.092;2023-07-31T01:22:48;12.52;;;3.50;;
23952;SDS011;12163;49.316;6.092;2023-07-31T01:25:44;8.75;;;2.92;;
23952;SDS011;12163;49.316;6.092;2023-07-31T01:28:15;13.45;;;2.85;;
23952;SDS011;12163;49.316;6.092;2023-07-31T01:30:47;11.18;;;2.92;;
23952;SDS011;12163;49.316;6.092;2023-07-31T01:33:15;9.32;;;2.80;;
23952;SDS011;12163;49.316;6.092;2023-07-31T01:35:43;10.30;;;3.08;;
23952;SDS011;12163;49.316;6.092;2023-07-31T01:38:12;8.27;;;3.22;;
23952;SDS011;12163;49.316;6.092;2023-07-31T01:40:41;7.15;;;2.80;;
23952;SDS011;12163;49.316;6.092;2023-07-31T01:43:08;9.60;;;2.92;;
23952;SDS011;12163;49.316;6.092;2023-07-31T01:45:35;12.93;;;2.67;;
23952;SDS011;12163;49.316;6.092;2023-07-31T01:48:02;9.98;;;3.38;;
23952;SDS011;12163;49.316;6.092;2023-07-31T01:50:28;7.90;;;2.83;;
23952;SDS011;12163;49.316;6.092;2023-07-31T01:52:55;8.88;;;3.10;;
23952;SDS011;12163;49.316;6.092;2023-07-31T01:55:21;8.00;;;3.00;;
23952;SDS011;12163;49.316;6.092;2023-07-31T01:57:48;9.95;;;2.58;;
23952;SDS011;12163;49.316;6.092;2023-07-31T02:00:15;8.90;;;3.10;;
23952;SDS011;12163;49.316;6.092;2023-07-31T02:02:42;8.45;;;2.90;;
23952;SDS011;12163;49.316;6.092;2023-07-31T02:05:08;6.80;;;3.20;;
23952;SDS011;12163;49.316;6.092;2023-07-31T02:07:35;7.45;;;3.10;;
23952;SDS011;12163;49.316;6.092;2023-07-31T02:10:02;9.18;;;2.97;;
23952;SDS011;12163;49.316;6.092;2023-07-31T02:12:29;6.50;;;2.83;;
23952;SDS011;12163;49.316;6.092;2023-07-31T02:14:58;6.68;;;3.22;;
23952;SDS011;12163;49.316;6.092;2023-07-31T02:17:24;9.85;;;3.10;;
23952;SDS011;12163;49.316;6.092;2023-07-31T02:19:51;9.32;;;3.35;;
23952;SDS011;12163;49.316;6.092;2023-07-31T02:22:18;10.90;;;3.00;;
23952;SDS011;12163;49.316;6.092;2023-07-31T02:24:44;7.65;;;2.83;;
23952;SDS011;12163;49.316;6.092;2023-07-31T02:27:11;10.25;;;3.20;;
23952;SDS011;12163;49.316;6.092;2023-07-31T02:29:38;8.23;;;2.95;;
23952;SDS011;12163;49.316;6.092;2023-07-31T02:32:04;8.02;;;2.63;;
23952;SDS011;12163;49.316;6.092;2023-07-31T02:34:31;9.85;;;3.17;;
23952;SDS011;12163;49.316;6.092;2023-07-31T02:36:58;9.23;;;2.50;;
23952;SDS011;12163;49.316;6.092;2023-07-31T02:39:24;7.80;;;2.88;;
23952;SDS011;12163;49.316;6.092;2023-07-31T02:41:51;6.93;;;2.78;;
23952;SDS011;12163;49.316;6.092;2023-07-31T02:44:17;8.63;;;3.13;;
23952;SDS011;12163;49.316;6.092;2023-07-31T02:46:44;8.85;;;3.20;;
23952;SDS011;12163;49.316;6.092;2023-07-31T02:49:10;8.70;;;2.72;;
23952;SDS011;12163;49.316;6.092;2023-07-31T02:51:37;10.13;;;2.70;;
23952;SDS011;12163;49.316;6.092;2023-07-31T02:54:04;8.10;;;2.95;;
23952;SDS011;12163;49.316;6.092;2023-07-31T02:56:30;7.97;;;2.78;;
23952;SDS011;12163;49.316;6.092;2023-07-31T02:58:57;7.18;;;2.42;;
23952;SDS011;12163;49.316;6.092;2023-07-31T03:01:23;9.45;;;3.20;;
23952;SDS011;12163;49.316;6.092;2023-07-31T03:03:50;17.65;;;3.20;;
23952;SDS011;12163;49.316;6.092;2023-07-31T03:06:17;12.40;;;2.95;;
23952;SDS011;12163;49.316;6.092;2023-07-31T03:08:43;7.45;;;2.80;;
23952;SDS011;12163;49.316;6.092;2023-07-31T03:11:10;5.90;;;2.58;;
23952;SDS011;12163;49.316;6.092;2023-07-31T03:13:37;10.98;;;3.08;;
23952;SDS011;12163;49.316;6.092;2023-07-31T03:16:03;8.88;;;2.63;;
23952;SDS011;12163;49.316;6.092;2023-07-31T03:18:30;8.90;;;3.35;;
23952;SDS011;12163;49.316;6.092;2023-07-31T03:20:56;10.98;;;3.13;;
23952;SDS011;12163;49.316;6.092;2023-07-31T03:23:23;8.18;;;2.75;;
23952;SDS011;12163;49.316;6.092;2023-07-31T03:25:57;10.50;;;3.40;;
23952;SDS011;12163;49.316;6.092;2023-07-31T03:28:25;8.85;;;2.67;;
23952;SDS011;12163;49.316;6.092;2023-07-31T03:30:52;11.05;;;3.15;;
23952;SDS011;12163;49.316;6.092;2023-07-31T03:33:19;7.45;;;2.95;;
23952;SDS011;12163;49.316;6.092;2023-07-31T03:35:46;6.88;;;2.80;;
23952;SDS011;12163;49.316;6.092;2023-07-31T03:38:12;10.90;;;2.90;;
23952;SDS011;12163;49.316;6.092;2023-07-31T03:40:39;13.88;;;3.35;;
23952;SDS011;12163;49.316;6.092;2023-07-31T03:43:06;10.45;;;2.97;;
23952;SDS011;12163;49.316;6.092;2023-07-31T03:45:33;9.20;;;3.10;;
23952;SDS011;12163;49.316;6.092;2023-07-31T03:47:59;9.75;;;2.92;;
23952;SDS011;12163;49.316;6.092;2023-07-31T03:50:26;7.03;;;2.67;;
23952;SDS011;12163;49.316;6.092;2023-07-31T03:52:53;6.45;;;2.53;;
23952;SDS011;12163;49.316;6.092;2023-07-31T03:55:19;8.90;;;2.70;;
23952;SDS011;12163;49.316;6.092;2023-07-31T03:57:48;11.20;;;2.88;;
23952;SDS011;12163;49.316;6.092;2023-07-31T04:00:14;7.40;;;2.75;;
23952;SDS011;12163;49.316;6.092;2023-07-31T04:02:41;6.88;;;2.92;;
23952;SDS011;12163;49.316;6.092;2023-07-31T04:05:07;10.85;;;3.10;;
23952;SDS011;12163;49.316;6.092;2023-07-31T04:07:34;7.22;;;2.97;;
23952;SDS011;12163;49.316;6.092;2023-07-31T04:10:01;10.65;;;2.90;;
23952;SDS011;12163;49.316;6.092;2023-07-31T04:12:27;7.43;;;2.42;;
23952;SDS011;12163;49.316;6.092;2023-07-31T04:14:54;6.88;;;3.08;;
23952;SDS011;12163;49.316;6.092;2023-07-31T04:17:21;15.40;;;3.13;;
23952;SDS011;12163;49.316;6.092;2023-07-31T04:19:47;8.63;;;2.72;;
23952;SDS011;12163;49.316;6.092;2023-07-31T04:22:14;7.43;;;2.83;;
23952;SDS011;12163;49.316;6.092;2023-07-31T04:24:41;9.43;;;2.83;;
23952;SDS011;12163;49.316;6.092;2023-07-31T04:27:07;6.57;;;3.10;;
23952;SDS011;12163;49.316;6.092;2023-07-31T04:29:34;10.13;;;3.08;;
23952;SDS011;12163;49.316;6.092;2023-07-31T04:32:00;12.32;;;3.05;;
23952;SDS011;12163;49.316;6.092;2023-07-31T04:34:27;9.80;;;2.92;;
23952;SDS011;12163;49.316;6.092;2023-07-31T04:36:53;11.18;;;3.30;;
23952;SDS011;12163;49.316;6.092;2023-07-31T04:39:20;7.05;;;2.40;;
23952;SDS011;12163;49.316;6.092;2023-07-31T04:41:47;8.35;;;2.72;;
23952;SDS011;12163;49.316;6.092;2023-07-31T04:44:13;9.57;;;2.30;;
23952;SDS011;12163;49.316;6.092;2023-07-31T04:46:40;7.05;;;2.90;;
23952;SDS011;12163;49.316;6.092;2023-07-31T04:49:07;13.40;;;2.72;;
23952;SDS011;12163;49.316;6.092;2023-07-31T04:51:34;6.70;;;2.70;;
23952;SDS011;12163;49.316;6.092;2023-07-31T04:54:01;6.32;;;2.00;;
23952;SDS011;12163;49.316;6.092;2023-07-31T04:56:27;7.30;;;2.88;;
23952;SDS011;12163;49.316;6.092;2023-07-31T04:58:54;10.82;;;3.00;;
23952;SDS011;12163;49.316;6.092;2023-07-31T05:01:21;5.93;;;2.42;;
23952;SDS011;12163;49.316;6.092;2023-07-31T05:03:47;7.53;;;3.08;;
23952;SDS011;12163;49.316;6.092;2023-07-31T05:06:14;8.18;;;2.45;;
23952;SDS011;12163;49.316;6.092;2023-07-31T05:08:41;5.07;;;2.40;;
23952;SDS011;12163;49.316;6.092;2023-07-31T05:11:08;9.43;;;2.72;;
23952;SDS011;12163;49.316;6.092;2023-07-31T05:13:34;6.40;;;2.53;;
23952;SDS011;12163;49.316;6.092;2023-07-31T05:16:01;8.32;;;2.50;;
23952;SDS011;12163;49.316;6.092;2023-07-31T05:18:29;8.48;;;2.78;;
23952;SDS011;12163;49.316;6.092;2023-07-31T05:20:55;12.15;;;2.88;;
23952;SDS011;12163;49.316;6.092;2023-07-31T05:23:22;12.65;;;2.95;;
23952;SDS011;12163;49.316;6.092;2023-07-31T05:25:49;8.93;;;3.00;;
23952;SDS011;12163;49.316;6.092;2023-07-31T05:28:15;8.38;;;2.65;;
23952;SDS011;12163;49.316;6.092;2023-07-31T05:30:42;8.77;;;2.90;;
23952;SDS011;12163;49.316;6.092;2023-07-31T05:33:09;8.13;;;2.72;;
23952;SDS011;12163;49.316;6.092;2023-07-31T05:35:39;7.90;;;2.90;;
23952;SDS011;12163;49.316;6.092;2023-07-31T05:38:07;10.95;;;2.97;;
23952;SDS011;12163;49.316;6.092;2023-07-31T05:40:33;12.15;;;3.30;;
23952;SDS011;12163;49.316;6.092;2023-07-31T05:43:00;8.68;;;2.80;;
23952;SDS011;12163;49.316;6.092;2023-07-31T05:45:27;9.38;;;2.80;;
23952;SDS011;12163;49.316;6.092;2023-07-31T05:47:53;8.10;;;2.60;;
23952;SDS011;12163;49.316;6.092;2023-07-31T05:50:20;5.90;;;2.90;;
23952;SDS011;12163;49.316;6.092;2023-07-31T05:52:46;6.30;;;3.20;;
23952;SDS011;12163;49.316;6.092;2023-07-31T05:55:13;11.35;;;2.85;;
23952;SDS011;12163;49.316;6.092;2023-07-31T05:57:40;5.60;;;2.10;;
23952;SDS011;12163;49.316;6.092;2023-07-31T06:00:06;9.60;;;2.60;;
23952;SDS011;12163;49.316;6.092;2023-07-31T06:02:34;6.70;;;2.25;;
23952;SDS011;12163;49.316;6.092;2023-07-31T06:05:04;5.22;;;2.50;;
23952;SDS011;12163;49.316;6.092;2023-07-31T06:07:32;8.82;;;2.83;;
23952;SDS011;12163;49.316;6.092;2023-07-31T06:09:59;10.65;;;2.80;;
23952;SDS011;12163;49.316;6.092;2023-07-31T06:12:34;9.82;;;2.80;;
23952;SDS011;12163;49.316;6.092;2023-07-31T06:15:02;11.65;;;2.92;;
23952;SDS011;12163;49.316;6.092;2023-07-31T06:17:29;6.15;;;2.70;;
23952;SDS011;12163;49.316;6.092;2023-07-31T06:19:56;7.10;;;3.13;;
23952;SDS011;12163;49.316;6.092;2023-07-31T06:22:23;7.47;;;2.78;;
23952;SDS011;12163;49.316;6.092;2023-07-31T06:24:50;10.05;;;3.28;;
23952;SDS011;12163;49.316;6.092;2023-07-31T06:27:16;5.45;;;2.75;;
23952;SDS011;12163;49.316;6.092;2023-07-31T06:29:43;8.38;;;3.05;;
23952;SDS011;12163;49.316;6.092;2023-07-31T06:32:10;6.85;;;2.80;;
23952;SDS011;12163;49.316;6.092;2023-07-31T06:34:36;5.80;;;2.55;;
23952;SDS011;12163;49.316;6.092;2023-07-31T06:37:03;9.63;;;2.75;;
23952;SDS011;12163;49.316;6.092;2023-07-31T06:39:30;7.70;;;3.03;;
23952;SDS011;12163;49.316;6.092;2023-07-31T06:41:56;8.98;;;3.15;;
23952;SDS011;12163;49.316;6.092;2023-07-31T06:44:23;10.25;;;2.92;;
23952;SDS011;12163;49.316;6.092;2023-07-31T06:46:50;6.00;;;2.78;;
23952;SDS011;12163;49.316;6.092;2023-07-31T06:49:17;14.43;;;2.90;;
23952;SDS011;12163;49.316;6.092;2023-07-31T06:51:43;7.35;;;2.95;;
23952;SDS011;12163;49.316;6.092;2023-07-31T06:54:10;6.40;;;2.72;;
23952;SDS011;12163;49.316;6.092;2023-07-31T06:56:37;9.38;;;3.00;;
23952;SDS011;12163;49.316;6.092;2023-07-31T06:59:06;8.48;;;3.88;;
23952;SDS011;12163;49.316;6.092;2023-07-31T07:01:33;10.00;;;3.50;;
23952;SDS011;12163;49.316;6.092;2023-07-31T07:04:00;8.30;;;3.15;;
23952;SDS011;12163;49.316;6.092;2023-07-31T07:06:26;15.20;;;3.45;;
23952;SDS011;12163;49.316;6.092;2023-07-31T07:08:53;9.38;;;3.63;;
23952;SDS011;12163;49.316;6.092;2023-07-31T07:11:20;10.35;;;3.65;;
23952;SDS011;12163;49.316;6.092;2023-07-31T07:13:46;11.32;;;3.25;;
23952;SDS011;12163;49.316;6.092;2023-07-31T07:16:13;11.80;;;3.17;;
23952;SDS011;12163;49.316;6.092;2023-07-31T07:18:40;5.95;;;2.80;;
23952;SDS011;12163;49.316;6.092;2023-07-31T07:21:23;11.88;;;3.60;;
23952;SDS011;12163;49.316;6.092;2023-07-31T07:23:50;8.07;;;3.05;;
23952;SDS011;12163;49.316;6.092;2023-07-31T07:26:17;9.93;;;3.92;;
23952;SDS011;12163;49.316;6.092;2023-07-31T07:28:43;6.88;;;2.75;;
23952;SDS011;12163;49.316;6.092;2023-07-31T07:31:10;9.00;;;3.65;;
23952;SDS011;12163;49.316;6.092;2023-07-31T07:33:37;8.60;;;3.28;;
23952;SDS011;12163;49.316;6.092;2023-07-31T07:36:03;9.57;;;3.40;;
23952;SDS011;12163;49.316;6.092;2023-07-31T07:38:32;11.32;;;3.88;;
23952;SDS011;12163;49.316;6.092;2023-07-31T07:40:59;9.25;;;2.83;;
23952;SDS011;12163;49.316;6.092;2023-07-31T07:43:25;7.28;;;3.40;;
23952;SDS011;12163;49.316;6.092;2023-07-31T07:45:52;6.53;;;3.10;;
23952;SDS011;12163;49.316;6.092;2023-07-31T07:48:19;12.52;;;4.10;;
23952;SDS011;12163;49.316;6.092;2023-07-31T07:50:46;10.93;;;3.30;;
23952;SDS011;12163;49.316;6.092;2023-07-31T07:53:12;8.65;;;3.25;;
23952;SDS011;12163;49.316;6.092;2023-07-31T07:55:40;8.30;;;3.17;;
23952;SDS011;12163;49.316;6.092;2023-07-31T07:58:07;8.15;;;3.25;;
23952;SDS011;12163;49.316;6.092;2023-07-31T08:00:34;9.43;;;3.45;;
23952;SDS011;12163;49.316;6.092;2023-07-31T08:03:01;10.68;;;2.85;;
23952;SDS011;12163;49.316;6.092;2023-07-31T08:05:27;7.70;;;3.08;;
23952;SDS011;12163;49.316;6.092;2023-07-31T08:07:57;8.70;;;2.85;;
23952;SDS011;12163;49.316;6.092;2023-07-31T08:10:24;7.65;;;2.95;;
23952;SDS011;12163;49.316;6.092;2023-07-31T08:12:50;9.98;;;2.97;;
23952;SDS011;12163;49.316;6.092;2023-07-31T08:15:17;12.90;;;3.08;;
23952;SDS011;12163;49.316;6.092;2023-07-31T08:17:44;7.28;;;2.95;;
23952;SDS011;12163;49.316;6.092;2023-07-31T08:20:10;11.77;;;3.17;;
23952;SDS011;12163;49.316;6.092;2023-07-31T08:22:37;8.68;;;2.88;;
23952;SDS011;12163;49.316;6.092;2023-07-31T08:25:04;6.65;;;3.00;;
23952;SDS011;12163;49.316;6.092;2023-07-31T08:27:32;8.48;;;2.80;;
23952;SDS011;12163;49.316;6.092;2023-07-31T08:29:59;8.02;;;3.35;;
23952;SDS011;12163;49.316;6.092;2023-07-31T08:32:26;10.43;;;3.47;;
23952;SDS011;12163;49.316;6.092;2023-07-31T08:34:52;12.73;;;3.90;;
23952;SDS011;12163;49.316;6.092;2023-07-31T08:37:19;10.77;;;2.92;;
23952;SDS011;12163;49.316;6.092;2023-07-31T08:39:46;8.02;;;3.00;;
23952;SDS011;12163;49.316;6.092;2023-07-31T08:42:12;7.57;;;2.97;;
23952;SDS011;12163;49.316;6.092;2023-07-31T08:44:39;8.77;;;2.55;;
23952;SDS011;12163;49.316;6.092;2023-07-31T08:47:05;6.78;;;2.65;;
23952;SDS011;12163;49.316;6.092;2023-07-31T08:49:32;14.43;;;3.40;;
23952;SDS011;12163;49.316;6.092;2023-07-31T08:52:01;9.82;;;3.05;;
23952;SDS011;12163;49.316;6.092;2023-07-31T08:54:28;8.63;;;2.80;;
23952;SDS011;12163;49.316;6.092;2023-07-31T08:56:57;5.60;;;2.10;;
23952;SDS011;12163;49.316;6.092;2023-07-31T08:59:29;7.90;;;2.80;;
23952;SDS011;12163;49.316;6.092;2023-07-31T09:01:57;9.43;;;2.63;;
23952;SDS011;12163;49.316;6.092;2023-07-31T09:04:29;8.13;;;2.20;;
23952;SDS011;12163;49.316;6.092;2023-07-31T09:06:57;7.72;;;2.67;;
23952;SDS011;12163;49.316;6.092;2023-07-31T09:09:27;7.80;;;2.83;;
23952;SDS011;12163;49.316;6.092;2023-07-31T09:11:53;7.10;;;2.35;;
23952;SDS011;12163;49.316;6.092;2023-07-31T09:14:21;7.32;;;2.72;;
23952;SDS011;12163;49.316;6.092;2023-07-31T09:16:51;6.57;;;2.70;;
23952;SDS011;12163;49.316;6.092;2023-07-31T09:19:28;5.80;;;2.50;;
23952;SDS011;12163;49.316;6.092;2023-07-31T09:22:00;5.22;;;2.20;;
23952;SDS011;12163;49.316;6.092;2023-07-31T09:24:28;8.32;;;3.10;;
23952;SDS011;12163;49.316;6.092;2023-07-31T09:26:57;4.35;;;2.03;;
23952;SDS011;12163;49.316;6.092;2023-07-31T09:29:28;12.43;;;3.88;;
23952;SDS011;12163;49.316;6.092;2023-07-31T09:31:56;12.13;;;4.18;;
23952;SDS011;12163;49.316;6.092;2023-07-31T09:34:28;8.88;;;2.78;;
23952;SDS011;12163;49.316;6.092;2023-07-31T09:37:01;8.30;;;2.28;;
23952;SDS011;12163;49.316;6.092;2023-07-31T09:39:29;7.15;;;2.83;;
23952;SDS011;12163;49.316;6.092;2023-07-31T09:41:56;8.52;;;2.72;;
23952;SDS011;12163;49.316;6.092;2023-07-31T09:44:45;4.15;;;2.10;;
23952;SDS011;12163;49.316;6.092;2023-07-31T09:47:22;4.63;;;2.25;;
23952;SDS011;12163;49.316;6.092;2023-07-31T09:49:53;6.57;;;2.50;;
23952;SDS011;12163;49.316;6.092;2023-07-31T09:52:19;5.82;;;2.20;;
23952;SDS011;12163;49.316;6.092;2023-07-31T09:54:46;5.28;;;2.30;;
23952;SDS011;12163;49.316;6.092;2023-07-31T09:57:13;3.63;;;1.73;;
23952;SDS011;12163;49.316;6.092;2023-07-31T09:59:43;5.35;;;2.60;;
23952;SDS011;12163;49.316;6.092;2023-07-31T10:02:13;7.75;;;2.53;;
23952;SDS011;12163;49.316;6.092;2023-07-31T10:04:42;5.67;;;2.43;;
23952;SDS011;12163;49.316;6.092;2023-07-31T10:07:12;6.40;;;2.20;;
23952;SDS011;12163;49.316;6.092;2023-07-31T10:09:40;12.32;;;2.28;;
23952;SDS011;12163;49.316;6.092;2023-07-31T10:12:08;10.10;;;2.55;;
23952;SDS011;12163;49.316;6.092;2023-07-31T10:14:38;10.25;;;2.15;;
23952;SDS011;12163;49.316;6.092;2023-07-31T10:17:07;9.23;;;2.40;;
23952;SDS011;12163;49.316;6.092;2023-07-31T10:19:35;4.93;;;2.50;;
23952;SDS011;12163;49.316;6.092;2023-07-31T10:22:02;5.32;;;2.10;;
23952;SDS011;12163;49.316;6.092;2023-07-31T10:24:29;6.45;;;2.50;;
23952;SDS011;12163;49.316;6.092;2023-07-31T10:26:57;6.40;;;2.10;;
23952;SDS011;12163;49.316;6.092;2023-07-31T10:29:26;5.35;;;1.90;;
23952;SDS011;12163;49.316;6.092;2023-07-31T10:31:54;5.53;;;1.90;;
23952;SDS011;12163;49.316;6.092;2023-07-31T10:34:24;4.00;;;1.80;;
23952;SDS011;12163;49.316;6.092;2023-07-31T10:36:56;3.55;;;1.77;;
23952;SDS011;12163;49.316;6.092;2023-07-31T10:42:27;3.63;;;1.70;;
23952;SDS011;12163;49.316;6.092;2023-07-31T10:44:59;5.68;;;1.98;;
23952;SDS011;12163;49.316;6.092;2023-07-31T10:47:30;4.43;;;2.15;;
23952;SDS011;12163;49.316;6.092;2023-07-31T10:50:13;3.03;;;1.88;;
23952;SDS011;12163;49.316;6.092;2023-07-31T10:52:47;4.32;;;1.77;;
23952;SDS011;12163;49.316;6.092;2023-07-31T10:55:16;8.85;;;1.90;;
23952;SDS011;12163;49.316;6.092;2023-07-31T10:57:50;6.03;;;2.00;;
23952;SDS011;12163;49.316;6.092;2023-07-31T11:13:14;6.68;;;1.95;;
23952;SDS011;12163;49.316;6.092;2023-07-31T11:15:41;4.97;;;2.15;;
23952;SDS011;12163;49.316;6.092;2023-07-31T11:18:07;5.78;;;2.40;;
23952;SDS011;12163;49.316;6.092;2023-07-31T11:20:37;6.05;;;1.80;;
23952;SDS011;12163;49.316;6.092;2023-07-31T11:23:08;3.42;;;1.88;;
23952;SDS011;12163;49.316;6.092;2023-07-31T11:25:36;4.75;;;1.90;;
23952;SDS011;12163;49.316;6.092;2023-07-31T11:28:09;3.70;;;1.88;;
23952;SDS011;12163;49.316;6.092;2023-07-31T11:30:40;3.92;;;1.98;;
23952;SDS011;12163;49.316;6.092;2023-07-31T11:33:08;5.60;;;2.08;;
23952;SDS011;12163;49.316;6.092;2023-07-31T11:35:41;5.15;;;2.13;;
23952;SDS011;12163;49.316;6.092;2023-07-31T11:38:12;8.63;;;2.78;;
23952;SDS011;12163;49.316;6.092;2023-07-31T11:40:49;4.10;;;2.00;;
23952;SDS011;12163;49.316;6.092;2023-07-31T11:43:15;6.20;;;2.22;;
23952;SDS011;12163;49.316;6.092;2023-07-31T11:45:49;4.45;;;2.42;;
23952;SDS011;12163;49.316;6.092;2023-07-31T11:48:30;4.80;;;2.22;;
23952;SDS011;12163;49.316;6.092;2023-07-31T11:51:02;7.95;;;2.30;;
23952;SDS011;12163;49.316;6.092;2023-07-31T11:53:31;6.07;;;2.38;;
23952;SDS011;12163;49.316;6.092;2023-07-31T11:56:02;6.03;;;2.30;;
23952;SDS011;12163;49.316;6.092;2023-07-31T11:58:31;7.93;;;2.53;;
23952;SDS011;12163;49.316;6.092;2023-07-31T12:00:59;5.70;;;2.47;;
23952;SDS011;12163;49.316;6.092;2023-07-31T12:03:26;3.90;;;2.75;;
23952;SDS011;12163;49.316;6.092;2023-07-31T12:05:53;7.28;;;2.45;;
23952;SDS011;12163;49.316;6.092;2023-07-31T12:08:21;5.70;;;2.47;;
23952;SDS011;12163;49.316;6.092;2023-07-31T12:10:52;5.70;;;2.30;;
23952;SDS011;12163;49.316;6.092;2023-07-31T12:13:21;7.63;;;2.55;;
23952;SDS011;12163;49.316;6.092;2023-07-31T12:15:53;3.70;;;2.20;;
23952;SDS011;12163;49.316;6.092;2023-07-31T12:18:24;4.45;;;2.30;;
23952;SDS011;12163;49.316;6.092;2023-07-31T12:20:54;6.32;;;2.13;;
23952;SDS011;12163;49.316;6.092;2023-07-31T12:23:25;7.03;;;2.45;;
23952;SDS011;12163;49.316;6.092;2023-07-31T12:28:26;5.70;;;2.95;;
23952;SDS011;12163;49.316;6.092;2023-07-31T12:30:56;8.57;;;2.60;;
23952;SDS011;12163;49.316;6.092;2023-07-31T12:33:29;6.68;;;2.65;;
23952;SDS011;12163;49.316;6.092;2023-07-31T12:35:57;4.53;;;2.30;;
23952;SDS011;12163;49.316;6.092;2023-07-31T12:38:26;4.50;;;2.55;;
23952;SDS011;12163;49.316;6.092;2023-07-31T12:40:53;4.95;;;2.75;;
23952;SDS011;12163;49.316;6.092;2023-07-31T12:43:20;7.65;;;2.75;;
23952;SDS011;12163;49.316;6.092;2023-07-31T12:45:46;6.82;;;2.65;;
23952;SDS011;12163;49.316;6.092;2023-07-31T12:48:13;6.50;;;3.17;;
23952;SDS011;12163;49.316;6.092;2023-07-31T12:50:40;6.18;;;2.65;;
23952;SDS011;12163;49.316;6.092;2023-07-31T12:53:07;7.53;;;2.72;;
23952;SDS011;12163;49.316;6.092;2023-07-31T12:55:34;7.40;;;2.90;;
23952;SDS011;12163;49.316;6.092;2023-07-31T12:58:00;7.05;;;2.78;;
23952;SDS011;12163;49.316;6.092;2023-07-31T13:00:27;7.20;;;2.72;;
23952;SDS011;12163;49.316;6.092;2023-07-31T13:02:54;7.72;;;2.85;;
23952;SDS011;12163;49.316;6.092;2023-07-31T13:05:21;6.57;;;2.92;;
23952;SDS011;12163;49.316;6.092;2023-07-31T13:07:48;6.97;;;2.50;;
23952;SDS011;12163;49.316;6.092;2023-07-31T13:10:18;5.10;;;2.58;;
23952;SDS011;12163;49.316;6.092;2023-07-31T13:12:45;6.93;;;2.92;;
23952;SDS011;12163;49.316;6.092;2023-07-31T13:15:12;7.32;;;2.53;;
23952;SDS011;12163;49.316;6.092;2023-07-31T13:17:38;5.45;;;2.47;;
23952;SDS011;12163;49.316;6.092;2023-07-31T13:20:05;8.23;;;2.85;;
23952;SDS011;12163;49.316;6.092;2023-07-31T13:22:32;6.30;;;2.90;;
23952;SDS011;12163;49.316;6.092;2023-07-31T13:24:59;5.68;;;2.63;;
23952;SDS011;12163;49.316;6.092;2023-07-31T13:27:26;9.27;;;2.97;;
23952;SDS011;12163;49.316;6.092;2023-07-31T13:29:53;8.23;;;3.10;;
23952;SDS011;12163;49.316;6.092;2023-07-31T13:32:21;8.93;;;3.13;;
23952;SDS011;12163;49.316;6.092;2023-07-31T13:34:48;8.63;;;3.15;;
23952;SDS011;12163;49.316;6.092;2023-07-31T13:37:15;9.10;;;3.20;;
23952;SDS011;12163;49.316;6.092;2023-07-31T13:39:43;6.45;;;3.25;;
23952;SDS011;12163;49.316;6.092;2023-07-31T13:42:09;6.90;;;3.00;;
23952;SDS011;12163;49.316;6.092;2023-07-31T13:44:38;9.40;;;3.10;;
23952;SDS011;12163;49.316;6.092;2023-07-31T13:47:06;10.90;;;3.63;;
23952;SDS011;12163;49.316;6.092;2023-07-31T13:49:33;8.88;;;3.55;;
23952;SDS011;12163;49.316;6.092;2023-07-31T13:52:02;7.55;;;3.17;;
23952;SDS011;12163;49.316;6.092;2023-07-31T13:54:29;11.85;;;3.15;;
23952;SDS011;12163;49.316;6.092;2023-07-31T13:56:56;10.90;;;3.28;;
23952;SDS011;12163;49.316;6.092;2023-07-31T13:59:23;14.68;;;3.63;;
23952;SDS011;12163;49.316;6.092;2023-07-31T14:01:50;9.20;;;3.80;;
23952;SDS011;12163;49.316;6.092;2023-07-31T14:04:17;9.38;;;3.63;;
23952;SDS011;12163;49.316;6.092;2023-07-31T14:06:44;11.48;;;3.70;;
23952;SDS011;12163;49.316;6.092;2023-07-31T14:09:12;5.60;;;3.08;;
23952;SDS011;12163;49.316;6.092;2023-07-31T14:11:38;7.18;;;3.30;;
23952;SDS011;12163;49.316;6.092;2023-07-31T14:14:08;7.32;;;3.00;;
23952;SDS011;12163;49.316;6.092;2023-07-31T14:16:36;5.82;;;3.28;;
23952;SDS011;12163;49.316;6.092;2023-07-31T14:19:03;5.55;;;3.33;;
23952;SDS011;12163;49.316;6.092;2023-07-31T14:21:30;5.82;;;3.22;;
23952;SDS011;12163;49.316;6.092;2023-07-31T14:23:56;8.43;;;3.80;;
23952;SDS011;12163;49.316;6.092;2023-07-31T14:26:23;6.57;;;3.08;;
23952;SDS011;12163;49.316;6.092;2023-07-31T14:28:50;9.23;;;3.25;;
23952;SDS011;12163;49.316;6.092;2023-07-31T14:31:16;7.80;;;3.45;;
23952;SDS011;12163;49.316;6.092;2023-07-31T14:33:43;7.10;;;3.15;;
23952;SDS011;12163;49.316;6.092;2023-07-31T14:36:09;10.93;;;3.70;;
23952;SDS011;12163;49.316;6.092;2023-07-31T14:38:36;8.02;;;3.72;;
23952;SDS011;12163;49.316;6.092;2023-07-31T14:41:03;13.77;;;3.65;;
23952;SDS011;12163;49.316;6.092;2023-07-31T14:43:29;5.60;;;3.40;;
23952;SDS011;12163;49.316;6.092;2023-07-31T14:45:56;7.18;;;3.35;;
23952;SDS011;12163;49.316;6.092;2023-07-31T14:48:26;4.97;;;3.13;;
23952;SDS011;12163;49.316;6.092;2023-07-31T14:50:53;8.65;;;3.42;;
23952;SDS011;12163;49.316;6.092;2023-07-31T14:53:20;13.35;;;4.20;;
23952;SDS011;12163;49.316;6.092;2023-07-31T14:55:47;8.73;;;3.60;;
23952;SDS011;12163;49.316;6.092;2023-07-31T14:58:14;9.40;;;3.78;;
23952;SDS011;12163;49.316;6.092;2023-07-31T15:00:41;7.72;;;3.67;;
23952;SDS011;12163;49.316;6.092;2023-07-31T15:03:08;8.90;;;3.70;;
23952;SDS011;12163;49.316;6.092;2023-07-31T15:05:34;10.07;;;3.67;;
23952;SDS011;12163;49.316;6.092;2023-07-31T15:08:01;10.02;;;3.83;;